Time;durP1;ratioP1;P1;durP2;ratioP2;P2;SDS_P1;SDS_P2;PMS_P1;PMS_P2;Temp;Humidity;BMP_temperature;BMP_pressure;BME280_temperature;BME280_humidity;BME280_pressure;Samples;Min_cycle;Max_cycle;Signal;HPM_P1;HPM_P2
2021/07/08 00:00:39;;;;;;;6.07;4.43;;;;;;;;;;5056932;28;20893;-57
2021/07/08 00:03:07;;;;;;;9.07;5.07;;;;;;;;;;5056773;28;20454;-58
2021/07/08 00:05:46;;;;;;;13.10;7.70;;;;;;;;;;5051741;28;20462;-57
2021/07/08 00:08:15;;;;;;;12.10;7.30;;;;;;;;;;5051667;28;20828;-57
2021/07/08 00:10:45;;;;;;;10.03;6.80;;;;;;;;;;5069691;28;20527;-57
2021/07/08 00:13:12;;;;;;;8.60;4.13;;;;;;;;;;5072073;28;21033;-57
2021/07/08 00:15:41;;;;;;;8.13;4.53;;;;;;;;;;5067350;28;20458;-56
2021/07/08 00:18:10;;;;;;;10.70;5.13;;;;;;;;;;5051037;28;20481;-51
2021/07/08 00:20:38;;;;;;;7.30;4.50;;;;;;;;;;5080666;28;20440;-55
2021/07/08 00:23:05;;;;;;;8.53;4.70;;;;;;;;;;5092615;28;20436;-55
2021/07/08 00:25:44;;;;;;;8.07;4.90;;;;;;;;;;5075490;28;20461;-55
2021/07/08 00:28:13;;;;;;;8.23;6.50;;;;;;;;;;5062010;28;20519;-55
2021/07/08 00:30:42;;;;;;;9.20;4.60;;;;;;;;;;5060564;28;20493;-56
2021/07/08 00:33:22;;;;;;;6.13;4.60;;;;;;;;;;5055420;28;20469;-55
2021/07/08 00:35:50;;;;;;;9.03;3.93;;;;;;;;;;5055621;28;20488;-57
2021/07/08 00:38:18;;;;;;;6.50;3.97;;;;;;;;;;5054877;28;20434;-54
2021/07/08 00:40:51;;;;;;;9.10;4.10;;;;;;;;;;5071641;28;20457;-55
2021/07/08 00:43:18;;;;;;;8.10;4.47;;;;;;;;;;5054605;28;20442;-56
2021/07/08 00:45:47;;;;;;;9.77;3.80;;;;;;;;;;5054418;28;20622;-58
2021/07/08 00:48:15;;;;;;;6.77;4.67;;;;;;;;;;5054624;28;20430;-57
2021/07/08 00:50:43;;;;;;;6.83;3.80;;;;;;;;;;5068923;28;20537;-58
2021/07/08 00:53:11;;;;;;;7.17;3.87;;;;;;;;;;5055100;28;20461;-57
2021/07/08 00:55:40;;;;;;;5.97;4.47;;;;;;;;;;5093791;28;20491;-54
2021/07/08 00:58:09;;;;;;;20.50;13.07;;;;;;;;;;5095865;28;20467;-56
2021/07/08 01:00:37;;;;;;;18.67;12.10;;;;;;;;;;5096423;28;20467;-54
2021/07/08 01:03:09;;;;;;;20.30;12.53;;;;;;;;;;5094652;28;20467;-54
2021/07/08 01:05:37;;;;;;;18.43;13.80;;;;;;;;;;5095199;28;20479;-58
2021/07/08 01:08:05;;;;;;;18.87;9.93;;;;;;;;;;5095094;28;20459;-58
2021/07/08 01:10:33;;;;;;;61.03;40.50;;;;;;;;;;5106117;28;20486;-58
2021/07/08 01:13:00;;;;;;;29.40;22.03;;;;;;;;;;5113247;28;20526;-52
2021/07/08 01:15:28;;;;;;;25.70;16.67;;;;;;;;;;5101482;28;20466;-59
2021/07/08 01:17:55;;;;;;;23.23;10.60;;;;;;;;;;5094860;28;20522;-56
2021/07/08 01:20:25;;;;;;;18.27;10.80;;;;;;;;;;5095553;28;20525;-55
2021/07/08 01:22:58;;;;;;;12.47;6.03;;;;;;;;;;5101857;28;20515;-55
2021/07/08 01:25:26;;;;;;;8.03;5.00;;;;;;;;;;5115546;28;20455;-55
2021/07/08 01:27:54;;;;;;;9.90;4.90;;;;;;;;;;5115678;28;20504;-54
2021/07/08 01:30:22;;;;;;;13.87;8.70;;;;;;;;;;5114758;28;20481;-53
2021/07/08 01:32:49;;;;;;;8.97;5.43;;;;;;;;;;5102801;28;20492;-56
2021/07/08 01:35:17;;;;;;;7.77;4.80;;;;;;;;;;5094701;28;20425;-54
2021/07/08 01:37:44;;;;;;;12.80;6.10;;;;;;;;;;5095005;28;20502;-56
2021/07/08 01:40:15;;;;;;;12.80;7.00;;;;;;;;;;5094870;28;20486;-53
2021/07/08 01:42:52;;;;;;;7.10;4.97;;;;;;;;;;5094612;28;20466;-55
2021/07/08 01:45:19;;;;;;;7.00;4.23;;;;;;;;;;5094554;28;20460;-54
2021/07/08 01:47:47;;;;;;;6.27;4.20;;;;;;;;;;5094082;28;20451;-54
2021/07/08 01:50:17;;;;;;;10.30;5.50;;;;;;;;;;5094857;28;20506;-57
2021/07/08 01:52:45;;;;;;;8.33;5.23;;;;;;;;;;5094478;28;20508;-57
2021/07/08 01:55:17;;;;;;;12.00;5.20;;;;;;;;;;5095625;28;20456;-57
2021/07/08 01:57:51;;;;;;;8.13;4.33;;;;;;;;;;5094497;28;20631;-56
2021/07/08 02:00:19;;;;;;;6.23;4.20;;;;;;;;;;5094619;28;20472;-52
2021/07/08 02:02:46;;;;;;;8.73;3.90;;;;;;;;;;5092976;28;20447;-55
2021/07/08 02:05:21;;;;;;;12.93;4.50;;;;;;;;;;5093832;28;20484;-56
2021/07/08 02:07:48;;;;;;;8.50;4.67;;;;;;;;;;5093602;28;20465;-52
2021/07/08 02:10:18;;;;;;;7.90;5.07;;;;;;;;;;5099308;28;20462;-56
2021/07/08 02:12:51;;;;;;;9.07;5.50;;;;;;;;;;5126511;28;20490;-54
2021/07/08 02:15:18;;;;;;;8.87;6.70;;;;;;;;;;5134919;28;20497;-53
2021/07/08 02:17:46;;;;;;;10.33;6.47;;;;;;;;;;5135118;28;20458;-55
2021/07/08 02:23:17;;;;;;;10.10;6.03;;;;;;;;;;5114726;28;20410;-53
2021/07/08 02:25:46;;;;;;;7.37;4.83;;;;;;;;;;5120779;28;20452;-55
2021/07/08 02:28:19;;;;;;;9.70;4.93;;;;;;;;;;5128697;28;20446;-54
2021/07/08 02:30:46;;;;;;;10.00;4.50;;;;;;;;;;5115276;28;20448;-53
2021/07/08 02:33:14;;;;;;;6.17;4.97;;;;;;;;;;5123868;28;20458;-54
2021/07/08 02:35:41;;;;;;;9.40;5.17;;;;;;;;;;5131606;28;20747;-52
2021/07/08 02:38:08;;;;;;;13.10;8.80;;;;;;;;;;5104575;28;20477;-56
2021/07/08 02:40:42;;;;;;;19.37;15.00;;;;;;;;;;5115231;28;20905;-54
2021/07/08 02:43:11;;;;;;;13.57;6.83;;;;;;;;;;5132910;28;20488;-54
2021/07/08 02:45:40;;;;;;;8.30;6.10;;;;;;;;;;5132030;28;20465;-55
2021/07/08 02:48:11;;;;;;;7.90;5.20;;;;;;;;;;5135310;28;20442;-57
2021/07/08 02:50:41;;;;;;;12.70;6.90;;;;;;;;;;5134293;28;20454;-55
2021/07/08 02:53:08;;;;;;;8.37;5.93;;;;;;;;;;5113973;28;20498;-56
2021/07/08 02:55:47;;;;;;;16.57;8.57;;;;;;;;;;5097589;28;20464;-54
2021/07/08 02:58:16;;;;;;;14.67;7.83;;;;;;;;;;5092792;28;20486;-54
2021/07/08 03:00:43;;;;;;;11.67;6.93;;;;;;;;;;5092895;28;20494;-53
2021/07/08 03:03:16;;;;;;;9.20;7.13;;;;;;;;;;5093978;28;20467;-57
2021/07/08 03:05:43;;;;;;;14.87;9.00;;;;;;;;;;5093173;28;20525;-53
2021/07/08 03:08:10;;;;;;;12.40;6.90;;;;;;;;;;5094272;28;20839;-57
2021/07/08 03:10:43;;;;;;;14.43;7.37;;;;;;;;;;5093413;28;20464;-55
2021/07/08 03:13:11;;;;;;;9.80;5.63;;;;;;;;;;5092819;28;20490;-57
2021/07/08 03:15:39;;;;;;;13.37;8.40;;;;;;;;;;5093041;28;20491;-54
2021/07/08 03:18:07;;;;;;;10.23;6.40;;;;;;;;;;5093184;28;20491;-54
2021/07/08 03:20:35;;;;;;;9.13;5.70;;;;;;;;;;5092374;28;20476;-57
2021/07/08 03:23:06;;;;;;;8.73;4.50;;;;;;;;;;5093522;28;20494;-55
2021/07/08 03:25:42;;;;;;;10.60;4.73;;;;;;;;;;5099338;28;20455;-57
2021/07/08 03:28:09;;;;;;;12.87;8.87;;;;;;;;;;5113921;28;20748;-56
2021/07/08 03:30:55;;;;;;;18.80;11.07;;;;;;;;;;5113634;28;20488;-53
2021/07/08 03:33:26;;;;;;;10.20;6.10;;;;;;;;;;5113795;28;20552;-55
2021/07/08 03:35:59;;;;;;;10.00;8.10;;;;;;;;;;5114903;28;20487;-55
2021/07/08 03:38:49;;;;;;;8.03;6.10;;;;;;;;;;5105623;28;20454;-56
2021/07/08 03:41:33;;;;;;;9.67;5.77;;;;;;;;;;5109894;28;20528;-57
2021/07/08 03:44:10;;;;;;;6.57;4.30;;;;;;;;;;5094678;28;20492;-53
2021/07/08 03:46:37;;;;;;;8.20;5.20;;;;;;;;;;5094261;28;20452;-55
2021/07/08 03:49:07;;;;;;;7.03;4.50;;;;;;;;;;5094968;28;20452;-57
2021/07/08 03:51:45;;;;;;;7.80;4.20;;;;;;;;;;5096212;28;20521;-54
2021/07/08 03:54:12;;;;;;;9.57;5.03;;;;;;;;;;5110446;28;20578;-56
2021/07/08 03:56:39;;;;;;;9.27;4.80;;;;;;;;;;5114029;28;20454;-57
2021/07/08 03:59:07;;;;;;;10.90;3.93;;;;;;;;;;5096298;28;20463;-57
2021/07/08 04:01:34;;;;;;;7.63;5.77;;;;;;;;;;5096962;28;20451;-54
2021/07/08 04:04:32;;;;;;;7.70;4.97;;;;;;;;;;5096987;28;20440;-56
2021/07/08 04:07:01;;;;;;;10.17;5.03;;;;;;;;;;5097168;28;20470;-57
2021/07/08 04:09:29;;;;;;;8.33;4.40;;;;;;;;;;5098197;28;20456;-52
2021/07/08 04:11:58;;;;;;;6.70;4.37;;;;;;;;;;5098270;28;20523;-63
2021/07/08 04:14:26;;;;;;;10.63;4.90;;;;;;;;;;5098088;28;20493;-54
2021/07/08 04:16:55;;;;;;;12.37;6.00;;;;;;;;;;5097415;28;20507;-54
2021/07/08 04:19:23;;;;;;;9.40;5.50;;;;;;;;;;5097638;28;20478;-57
2021/07/08 04:21:50;;;;;;;7.80;4.37;;;;;;;;;;5097598;28;20428;-57
2021/07/08 04:24:19;;;;;;;7.70;4.63;;;;;;;;;;5097833;28;20464;-58
2021/07/08 04:26:53;;;;;;;13.00;4.13;;;;;;;;;;5097067;28;20456;-55
2021/07/08 04:29:20;;;;;;;7.70;4.50;;;;;;;;;;5096593;28;20451;-56
2021/07/08 04:31:48;;;;;;;10.37;4.90;;;;;;;;;;5079025;28;20511;-54
2021/07/08 04:34:15;;;;;;;11.00;4.80;;;;;;;;;;5096166;28;20442;-55
2021/07/08 04:36:43;;;;;;;8.10;4.37;;;;;;;;;;5096655;28;20432;-55
2021/07/08 04:39:10;;;;;;;10.53;4.47;;;;;;;;;;5096524;28;20452;-56
2021/07/08 04:41:39;;;;;;;5.43;3.67;;;;;;;;;;5096156;28;20485;-56
2021/07/08 04:44:07;;;;;;;9.93;5.23;;;;;;;;;;5097227;28;20446;-57
2021/07/08 04:46:35;;;;;;;6.23;3.97;;;;;;;;;;5098035;28;20619;-54
2021/07/08 04:52:06;;;;;;;8.87;4.37;;;;;;;;;;5095636;28;20490;-55
2021/07/08 04:54:34;;;;;;;7.40;4.50;;;;;;;;;;5094306;28;20487;-55
2021/07/08 04:57:04;;;;;;;6.60;3.73;;;;;;;;;;5095021;28;20444;-56
2021/07/08 04:59:32;;;;;;;6.23;4.53;;;;;;;;;;5095130;28;20444;-53
2021/07/08 05:02:00;;;;;;;8.40;4.27;;;;;;;;;;5096454;28;20444;-57
2021/07/08 05:04:30;;;;;;;8.27;4.13;;;;;;;;;;5096776;28;20455;-58
2021/07/08 05:06:58;;;;;;;6.97;4.50;;;;;;;;;;5114942;28;20462;-55
2021/07/08 05:09:25;;;;;;;16.63;4.97;;;;;;;;;;5114752;28;20487;-54
2021/07/08 05:12:08;;;;;;;7.07;4.73;;;;;;;;;;5116356;28;20443;-57
2021/07/08 05:14:36;;;;;;;7.63;4.80;;;;;;;;;;5114984;28;20450;-55
2021/07/08 05:17:03;;;;;;;11.20;4.80;;;;;;;;;;5114974;28;20455;-56
2021/07/08 05:19:37;;;;;;;8.00;4.17;;;;;;;;;;5115327;28;20428;-55
2021/07/08 05:22:04;;;;;;;5.60;3.80;;;;;;;;;;5115794;28;20463;-56
2021/07/08 05:24:34;;;;;;;7.00;5.37;;;;;;;;;;5115550;28;20443;-54
2021/07/08 05:27:01;;;;;;;8.10;4.77;;;;;;;;;;5114746;28;20466;-56
2021/07/08 05:29:43;;;;;;;6.80;3.43;;;;;;;;;;5115701;28;20489;-57
2021/07/08 05:32:14;;;;;;;8.37;4.43;;;;;;;;;;5114528;28;20688;-54
2021/07/08 05:34:41;;;;;;;11.13;5.53;;;;;;;;;;5115111;28;20463;-56
2021/07/08 05:37:09;;;;;;;9.23;5.27;;;;;;;;;;5114957;28;20478;-57
2021/07/08 05:39:36;;;;;;;7.73;4.50;;;;;;;;;;5109291;28;20485;-57
2021/07/08 05:42:06;;;;;;;8.03;4.20;;;;;;;;;;5115440;28;20451;-57
2021/07/08 05:44:36;;;;;;;6.80;4.63;;;;;;;;;;5105151;28;20467;-57
2021/07/08 05:47:03;;;;;;;7.83;4.47;;;;;;;;;;5097108;28;20452;-55
2021/07/08 05:49:38;;;;;;;7.27;4.70;;;;;;;;;;5102957;28;20460;-54
2021/07/08 05:52:08;;;;;;;8.03;4.77;;;;;;;;;;5101923;28;20490;-54
2021/07/08 05:54:35;;;;;;;10.80;4.40;;;;;;;;;;5100345;28;20521;-54
2021/07/08 05:57:13;;;;;;;6.37;4.63;;;;;;;;;;5115204;28;20451;-52
2021/07/08 05:59:42;;;;;;;7.33;4.93;;;;;;;;;;5115640;28;20447;-53
2021/07/08 06:02:12;;;;;;;9.40;4.97;;;;;;;;;;5115666;28;20447;-55
2021/07/08 06:05:07;;;;;;;7.23;3.93;;;;;;;;;;5115379;28;20481;-56
2021/07/08 06:07:54;;;;;;;9.37;4.90;;;;;;;;;;5109146;28;20444;-56
2021/07/08 06:10:22;;;;;;;6.67;4.40;;;;;;;;;;5114602;28;20451;-55
2021/07/08 06:12:49;;;;;;;7.30;4.77;;;;;;;;;;5113433;28;20498;-56
2021/07/08 06:15:20;;;;;;;10.57;5.07;;;;;;;;;;5102526;28;20467;-55
2021/07/08 06:20:41;;;;;;;6.57;4.27;;;;;;;;;;5107750;28;20776;-53
2021/07/08 06:23:09;;;;;;;8.83;5.33;;;;;;;;;;5101635;28;20448;-53
2021/07/08 06:25:55;;;;;;;9.27;6.03;;;;;;;;;;5110994;28;20451;-56
2021/07/08 06:28:22;;;;;;;7.87;4.67;;;;;;;;;;5105475;28;20522;-56
2021/07/08 06:31:12;;;;;;;5.63;4.10;;;;;;;;;;5101390;28;20478;-57
2021/07/08 06:33:41;;;;;;;9.00;5.40;;;;;;;;;;5101825;28;20591;-56
2021/07/08 06:36:09;;;;;;;10.80;5.13;;;;;;;;;;5112094;28;20490;-54
2021/07/08 06:38:42;;;;;;;9.67;5.37;;;;;;;;;;5098510;28;20471;-56
2021/07/08 06:41:11;;;;;;;11.20;4.40;;;;;;;;;;5097041;28;20462;-58
2021/07/08 06:43:49;;;;;;;5.20;3.63;;;;;;;;;;5103793;28;20479;-59
2021/07/08 06:46:27;;;;;;;7.37;4.53;;;;;;;;;;5114496;28;20440;-64
2021/07/08 06:48:56;;;;;;;9.77;4.27;;;;;;;;;;5114439;28;20474;-56
2021/07/08 06:51:23;;;;;;;7.67;3.70;;;;;;;;;;5111231;28;20432;-59
2021/07/08 06:54:05;;;;;;;5.50;3.80;;;;;;;;;;5104789;28;20482;-57
2021/07/08 06:56:36;;;;;;;12.00;4.17;;;;;;;;;;5104330;28;20482;-56
2021/07/08 06:59:32;;;;;;;6.80;4.97;;;;;;;;;;5107404;28;20497;-55
2021/07/08 07:02:01;;;;;;;11.50;4.73;;;;;;;;;;5106126;28;20517;-57
2021/07/08 07:04:30;;;;;;;6.93;3.90;;;;;;;;;;5099164;28;20444;-57
2021/07/08 07:07:15;;;;;;;6.67;4.43;;;;;;;;;;5107162;28;20525;-59
2021/07/08 07:09:44;;;;;;;7.03;3.73;;;;;;;;;;5104698;28;20523;-57
2021/07/08 07:12:19;;;;;;;9.50;4.17;;;;;;;;;;5113037;28;20436;-59
2021/07/08 07:14:59;;;;;;;6.53;4.13;;;;;;;;;;5113701;28;20448;-57
2021/07/08 07:17:33;;;;;;;10.43;3.73;;;;;;;;;;5106144;28;20732;-56
2021/07/08 07:20:00;;;;;;;7.80;4.20;;;;;;;;;;5113125;28;20488;-57
2021/07/08 07:22:31;;;;;;;9.67;5.30;;;;;;;;;;5108957;28;20442;-57
2021/07/08 07:24:59;;;;;;;8.50;3.80;;;;;;;;;;5092354;28;20532;-57
2021/07/08 07:27:28;;;;;;;10.40;4.10;;;;;;;;;;5098121;28;20489;-58
2021/07/08 07:30:08;;;;;;;11.43;3.80;;;;;;;;;;5090774;28;20474;-56
2021/07/08 07:32:37;;;;;;;8.03;4.17;;;;;;;;;;5105495;28;20469;-54
2021/07/08 07:35:15;;;;;;;5.97;3.60;;;;;;;;;;5101203;28;20466;-57
2021/07/08 07:37:49;;;;;;;7.00;3.40;;;;;;;;;;5124818;28;20460;-57
2021/07/08 07:40:19;;;;;;;7.93;3.60;;;;;;;;;;5128761;28;20456;-57
2021/07/08 07:45:56;;;;;;;9.00;3.57;;;;;;;;;;5090956;28;20458;-59
2021/07/08 07:48:30;;;;;;;7.03;3.70;;;;;;;;;;5092126;28;20458;-56
2021/07/08 07:50:57;;;;;;;7.13;2.80;;;;;;;;;;5091815;28;20460;-57
2021/07/08 07:53:25;;;;;;;6.83;3.10;;;;;;;;;;5091069;28;20498;-56
2021/07/08 07:55:53;;;;;;;10.50;6.53;;;;;;;;;;5091154;28;20554;-57
2021/07/08 07:58:20;;;;;;;5.60;3.50;;;;;;;;;;5091319;28;20447;-54
2021/07/08 08:00:48;;;;;;;9.90;4.23;;;;;;;;;;5090755;28;20523;-55
2021/07/08 08:03:34;;;;;;;9.13;3.37;;;;;;;;;;5105609;28;20459;-57
2021/07/08 08:08:49;;;;;;;10.30;4.13;;;;;;;;;;5131266;28;20614;-55
2021/07/08 08:11:34;;;;;;;9.00;3.70;;;;;;;;;;5109466;28;20468;-58
2021/07/08 08:14:07;;;;;;;11.47;4.53;;;;;;;;;;5102890;28;20508;-59
2021/07/08 08:16:45;;;;;;;6.00;4.10;;;;;;;;;;5108151;28;20914;-58
2021/07/08 08:19:16;;;;;;;7.67;4.40;;;;;;;;;;5091280;28;20522;-56
2021/07/08 08:21:45;;;;;;;6.03;4.00;;;;;;;;;;5093956;28;20485;-54
2021/07/08 08:24:14;;;;;;;8.80;4.40;;;;;;;;;;5099724;28;20469;-58
2021/07/08 08:26:41;;;;;;;4.63;3.23;;;;;;;;;;5089874;28;20463;-58
2021/07/08 08:29:08;;;;;;;9.67;4.70;;;;;;;;;;5104755;28;20591;-58
2021/07/08 08:31:36;;;;;;;5.37;3.33;;;;;;;;;;5101333;28;20460;-56
2021/07/08 08:34:04;;;;;;;5.93;3.77;;;;;;;;;;5104379;28;20464;-55
2021/07/08 08:36:38;;;;;;;7.20;4.00;;;;;;;;;;5106364;28;20486;-58
2021/07/08 08:39:07;;;;;;;10.27;4.60;;;;;;;;;;5095497;28;20445;-56
2021/07/08 08:41:40;;;;;;;7.40;4.20;;;;;;;;;;5102278;28;20442;-57
2021/07/08 08:44:27;;;;;;;5.63;4.10;;;;;;;;;;5114225;28;20462;-57
2021/07/08 08:46:57;;;;;;;6.30;4.07;;;;;;;;;;5113828;28;20502;-54
2021/07/08 08:49:25;;;;;;;8.37;5.17;;;;;;;;;;5100487;28;20467;-56
2021/07/08 08:52:19;;;;;;;6.30;4.20;;;;;;;;;;5094351;28;20523;-56
2021/07/08 08:54:51;;;;;;;9.83;4.97;;;;;;;;;;5094350;28;20516;-58
2021/07/08 08:57:20;;;;;;;8.60;4.00;;;;;;;;;;5092662;28;20683;-57
2021/07/08 09:00:16;;;;;;;6.60;3.70;;;;;;;;;;5093038;28;20493;-55
2021/07/08 09:03:06;;;;;;;7.17;4.03;;;;;;;;;;5109369;28;20573;-56
2021/07/08 09:05:34;;;;;;;9.27;7.23;;;;;;;;;;5114243;28;20458;-58
2021/07/08 09:08:15;;;;;;;7.77;3.40;;;;;;;;;;5114157;28;20476;-58
2021/07/08 09:10:49;;;;;;;8.13;4.50;;;;;;;;;;5113842;28;20462;-55
2021/07/08 09:13:22;;;;;;;7.53;4.17;;;;;;;;;;5109103;28;20475;-56
2021/07/08 09:15:50;;;;;;;6.37;3.13;;;;;;;;;;5102967;28;20458;-59
2021/07/08 09:18:18;;;;;;;11.00;2.63;;;;;;;;;;5109186;28;20468;-60
2021/07/08 09:20:51;;;;;;;4.83;2.87;;;;;;;;;;5111447;28;20518;-57
2021/07/08 09:23:19;;;;;;;8.00;3.73;;;;;;;;;;5096806;28;20483;-58
2021/07/08 09:25:48;;;;;;;11.67;3.97;;;;;;;;;;5102007;28;20546;-55
2021/07/08 09:28:27;;;;;;;11.73;3.00;;;;;;;;;;5092735;28;20490;-57
2021/07/08 09:31:01;;;;;;;8.87;3.17;;;;;;;;;;5093478;28;20464;-57
2021/07/08 09:33:40;;;;;;;7.17;5.10;;;;;;;;;;5093476;28;20484;-56
2021/07/08 09:36:18;;;;;;;7.73;2.87;;;;;;;;;;5112064;28;20459;-56
2021/07/08 09:38:49;;;;;;;10.23;4.10;;;;;;;;;;5114928;28;20459;-57
2021/07/08 09:41:32;;;;;;;7.00;3.23;;;;;;;;;;5113983;28;20478;-56
2021/07/08 09:44:00;;;;;;;7.23;3.13;;;;;;;;;;5114080;28;20454;-55
2021/07/08 09:46:37;;;;;;;6.17;2.87;;;;;;;;;;5122606;28;20447;-53
2021/07/08 09:49:06;;;;;;;5.97;3.40;;;;;;;;;;5119523;28;20448;-58
2021/07/08 09:51:33;;;;;;;5.60;3.20;;;;;;;;;;5093318;28;20464;-56
2021/07/08 09:57:07;;;;;;;6.87;3.50;;;;;;;;;;5115037;28;20441;-58
2021/07/08 09:59:38;;;;;;;4.30;2.13;;;;;;;;;;5109848;28;20460;-58
2021/07/08 10:02:10;;;;;;;3.87;2.30;;;;;;;;;;5098619;28;20555;-57
2021/07/08 10:04:39;;;;;;;5.13;2.83;;;;;;;;;;5095570;28;20456;-58
2021/07/08 10:07:06;;;;;;;6.37;2.70;;;;;;;;;;5089979;28;20464;-58
2021/07/08 10:09:34;;;;;;;6.17;3.30;;;;;;;;;;5097438;28;20476;-55
2021/07/08 10:12:02;;;;;;;9.40;4.70;;;;;;;;;;5091907;28;20460;-56
2021/07/08 10:14:33;;;;;;;6.07;2.63;;;;;;;;;;5093827;28;20483;-53
2021/07/08 10:17:00;;;;;;;10.33;3.90;;;;;;;;;;5093539;28;20678;-54
2021/07/08 10:19:33;;;;;;;8.37;4.00;;;;;;;;;;5104421;28;20507;-58
2021/07/08 10:27:32;;;;;;;9.83;3.63;;;;;;;;;;5092858;28;20405;-57
2021/07/08 10:30:01;;;;;;;4.77;2.57;;;;;;;;;;5107599;28;20209;-57
2021/07/08 10:32:29;;;;;;;4.93;3.00;;;;;;;;;;5098071;28;20712;-58
2021/07/08 10:34:57;;;;;;;5.20;2.60;;;;;;;;;;5089025;28;20491;-58
2021/07/08 10:37:33;;;;;;;6.40;3.20;;;;;;;;;;5088261;28;20487;-55
2021/07/08 10:40:10;;;;;;;8.60;3.10;;;;;;;;;;5089189;28;20491;-59
2021/07/08 10:42:54;;;;;;;4.63;2.53;;;;;;;;;;5088132;28;20474;-58
2021/07/08 10:45:41;;;;;;;6.73;3.97;;;;;;;;;;5107046;28;20507;-58
2021/07/08 10:48:19;;;;;;;6.27;3.20;;;;;;;;;;5107771;28;20480;-59
2021/07/08 10:50:51;;;;;;;5.97;3.40;;;;;;;;;;5107183;28;20466;-57
2021/07/08 10:53:23;;;;;;;8.93;4.50;;;;;;;;;;5105685;28;20443;-58
2021/07/08 10:55:51;;;;;;;18.93;7.07;;;;;;;;;;5111201;28;20469;-58
2021/07/08 10:58:49;;;;;;;6.07;3.00;;;;;;;;;;5127881;28;20473;-58
2021/07/08 11:01:39;;;;;;;6.80;3.80;;;;;;;;;;5092567;28;20456;-57
2021/07/08 11:04:17;;;;;;;6.80;3.07;;;;;;;;;;5103811;28;20528;-56
2021/07/08 11:06:46;;;;;;;4.30;2.30;;;;;;;;;;5101488;28;20473;-57
2021/07/08 11:09:21;;;;;;;6.50;2.90;;;;;;;;;;5084430;28;20459;-58
2021/07/08 11:12:11;;;;;;;4.70;2.70;;;;;;;;;;5086246;28;20459;-57
2021/07/08 11:14:42;;;;;;;6.90;2.70;;;;;;;;;;5095177;28;20490;-56
2021/07/08 11:20:24;;;;;;;9.03;3.90;;;;;;;;;;5102825;28;20516;-58
2021/07/08 11:23:14;;;;;;;8.20;3.63;;;;;;;;;;5097913;28;20451;-58
2021/07/08 11:25:44;;;;;;;7.10;3.30;;;;;;;;;;5109336;28;20435;-57
2021/07/08 11:28:31;;;;;;;3.43;2.40;;;;;;;;;;5107523;28;20557;-59
2021/07/08 11:31:01;;;;;;;7.40;3.20;;;;;;;;;;5104390;28;20448;-55
2021/07/08 11:33:36;;;;;;;6.63;3.50;;;;;;;;;;5089688;28;20634;-58
2021/07/08 11:36:13;;;;;;;8.13;4.40;;;;;;;;;;5091667;28;20448;-58
2021/07/08 11:38:43;;;;;;;8.10;4.40;;;;;;;;;;5105670;28;20508;-58
2021/07/08 11:41:14;;;;;;;8.03;3.40;;;;;;;;;;5108718;28;20455;-59
2021/07/08 11:43:51;;;;;;;6.73;3.20;;;;;;;;;;5109060;28;20451;-57
2021/07/08 11:46:19;;;;;;;6.23;2.70;;;;;;;;;;5092118;28;20523;-57
2021/07/08 11:48:47;;;;;;;7.10;3.63;;;;;;;;;;5089817;28;20678;-58
2021/07/08 11:51:20;;;;;;;4.70;2.70;;;;;;;;;;5092338;28;20471;-58
2021/07/08 11:53:49;;;;;;;8.27;3.90;;;;;;;;;;5088142;28;20862;-58
2021/07/08 11:56:35;;;;;;;7.07;3.73;;;;;;;;;;5098398;28;20470;-59
2021/07/08 11:59:13;;;;;;;7.50;3.70;;;;;;;;;;5090174;28;20464;-55
2021/07/08 12:01:50;;;;;;;7.03;3.87;;;;;;;;;;5107764;28;20459;-58
2021/07/08 12:04:28;;;;;;;5.83;2.90;;;;;;;;;;5118912;28;20444;-59
2021/07/08 12:06:59;;;;;;;7.63;3.10;;;;;;;;;;5131113;28;20457;-56
2021/07/08 12:09:28;;;;;;;7.80;3.67;;;;;;;;;;5128868;28;20479;-56
2021/07/08 12:12:08;;;;;;;10.43;2.90;;;;;;;;;;5114157;28;20477;-59
2021/07/08 12:14:36;;;;;;;8.43;3.70;;;;;;;;;;5106959;28;20498;-58
2021/07/08 12:17:03;;;;;;;6.63;3.17;;;;;;;;;;5106969;28;20448;-57
2021/07/08 12:19:46;;;;;;;9.33;3.30;;;;;;;;;;5110101;28;20455;-58
2021/07/08 12:22:15;;;;;;;8.97;2.40;;;;;;;;;;5092069;28;20459;-60
2021/07/08 12:24:44;;;;;;;6.43;3.10;;;;;;;;;;5092345;28;20431;-60
2021/07/08 12:27:26;;;;;;;9.93;3.83;;;;;;;;;;5091727;28;20446;-56
2021/07/08 12:29:54;;;;;;;9.33;3.90;;;;;;;;;;5110678;28;20493;-58
2021/07/08 12:32:22;;;;;;;6.97;3.63;;;;;;;;;;5101330;28;20460;-57
2021/07/08 12:34:53;;;;;;;5.07;3.03;;;;;;;;;;5093963;28;20483;-58
2021/07/08 12:37:27;;;;;;;7.90;2.70;;;;;;;;;;5094470;28;20448;-58
2021/07/08 12:40:08;;;;;;;7.43;2.80;;;;;;;;;;5101161;28;20809;-57
2021/07/08 12:42:39;;;;;;;7.13;3.20;;;;;;;;;;5096049;28;20542;-56
2021/07/08 12:45:17;;;;;;;6.67;3.50;;;;;;;;;;5092493;28;20722;-59
2021/07/08 12:47:50;;;;;;;9.97;2.47;;;;;;;;;;5105981;28;20500;-56
2021/07/08 12:50:27;;;;;;;8.47;3.33;;;;;;;;;;5107034;28;20875;-58
2021/07/08 12:52:58;;;;;;;7.97;3.00;;;;;;;;;;5131076;28;20460;-60
2021/07/08 12:55:49;;;;;;;9.30;3.87;;;;;;;;;;5132391;28;20489;-65
2021/07/08 12:58:20;;;;;;;7.20;4.60;;;;;;;;;;5097313;28;20495;-58
2021/07/08 13:06:29;;;;;;;9.40;3.80;;;;;;;;;;5093953;28;20475;-58
2021/07/08 13:09:13;;;;;;;7.30;3.60;;;;;;;;;;5089947;28;20511;-55
2021/07/08 13:11:41;;;;;;;5.30;4.00;;;;;;;;;;5094078;28;20454;-57
2021/07/08 13:14:24;;;;;;;8.30;3.50;;;;;;;;;;5105059;28;20498;-59
2021/07/08 13:17:15;;;;;;;8.40;4.13;;;;;;;;;;5100520;28;20459;-58
2021/07/08 13:20:23;;;;;;;5.73;4.10;;;;;;;;;;5098666;28;20512;-60
2021/07/08 13:23:02;;;;;;;9.00;4.97;;;;;;;;;;5097106;28;20476;-60
2021/07/08 13:25:41;;;;;;;16.50;6.60;;;;;;;;;;5096013;28;20459;-58
2021/07/08 13:28:20;;;;;;;10.83;3.40;;;;;;;;;;5093825;28;20439;-64
2021/07/08 13:31:33;;;;;;;7.70;4.13;;;;;;;;;;5056824;28;20472;-58
2021/07/08 13:34:04;;;;;;;9.30;3.10;;;;;;;;;;5053438;28;20457;-57
2021/07/08 13:36:45;;;;;;;10.47;4.00;;;;;;;;;;5064252;28;20494;-58
2021/07/08 13:39:14;;;;;;;5.73;3.73;;;;;;;;;;5092437;28;20439;-58
2021/07/08 13:41:49;;;;;;;8.07;3.80;;;;;;;;;;5097731;28;20505;-59
2021/07/08 13:44:35;;;;;;;5.77;3.00;;;;;;;;;;5092046;28;20463;-58
2021/07/08 13:47:48;;;;;;;9.13;3.80;;;;;;;;;;5083716;28;20479;-56
2021/07/08 13:50:23;;;;;;;5.63;3.77;;;;;;;;;;5108526;28;20495;-58
2021/07/08 13:52:50;;;;;;;8.37;3.87;;;;;;;;;;5078881;28;20501;-56
2021/07/08 13:55:18;;;;;;;4.93;3.20;;;;;;;;;;5095334;28;20488;-58
2021/07/08 13:57:46;;;;;;;6.77;2.93;;;;;;;;;;5081024;28;20467;-57
2021/07/08 14:00:14;;;;;;;9.13;4.47;;;;;;;;;;5084640;28;20490;-56
2021/07/08 14:02:49;;;;;;;10.63;4.30;;;;;;;;;;5085994;28;20452;-59
2021/07/08 14:05:17;;;;;;;11.33;7.37;;;;;;;;;;5072036;28;20468;-57
2021/07/08 14:07:52;;;;;;;5.70;4.70;;;;;;;;;;5086492;28;20440;-59
2021/07/08 14:10:20;;;;;;;8.53;5.80;;;;;;;;;;5083708;28;20474;-58
2021/07/08 14:12:50;;;;;;;10.73;6.07;;;;;;;;;;5083142;28;20472;-57
2021/07/08 14:15:18;;;;;;;7.77;5.10;;;;;;;;;;5084656;28;20773;-59
2021/07/08 14:17:56;;;;;;;9.10;4.80;;;;;;;;;;5080171;28;20499;-58
2021/07/08 14:20:29;;;;;;;6.83;4.30;;;;;;;;;;5059938;28;20708;-55
2021/07/08 14:22:57;;;;;;;10.23;4.73;;;;;;;;;;5072492;28;20996;-56
2021/07/08 14:25:24;;;;;;;9.53;3.70;;;;;;;;;;5093377;28;20455;-58
2021/07/08 14:27:53;;;;;;;8.77;4.73;;;;;;;;;;5075514;28;20532;-58
2021/07/08 14:33:04;;;;;;;15.67;6.60;;;;;;;;;;5072457;28;20463;-58
2021/07/08 14:35:38;;;;;;;7.00;3.80;;;;;;;;;;5072543;28;20500;-58
2021/07/08 14:38:16;;;;;;;12.03;5.20;;;;;;;;;;5083124;28;20454;-58
2021/07/08 14:40:44;;;;;;;11.10;7.73;;;;;;;;;;5071060;28;20460;-56
2021/07/08 14:43:11;;;;;;;8.57;5.10;;;;;;;;;;5077810;28;20537;-56
2021/07/08 14:45:42;;;;;;;19.50;7.30;;;;;;;;;;5066124;28;20461;-58
2021/07/08 14:48:15;;;;;;;10.40;7.97;;;;;;;;;;5068593;28;20472;-56
2021/07/08 14:50:54;;;;;;;8.60;5.10;;;;;;;;;;5061914;28;21060;-57
2021/07/08 14:53:22;;;;;;;8.50;5.37;;;;;;;;;;5052797;28;20467;-59
2021/07/08 14:55:53;;;;;;;9.33;6.00;;;;;;;;;;5055606;28;20494;-56
2021/07/08 14:58:26;;;;;;;7.77;5.37;;;;;;;;;;5064758;28;20453;-59
2021/07/08 15:00:54;;;;;;;9.90;6.20;;;;;;;;;;5049075;28;20458;-57
2021/07/08 15:03:23;;;;;;;11.63;6.40;;;;;;;;;;5068489;28;20449;-57
2021/07/08 15:05:56;;;;;;;10.07;4.93;;;;;;;;;;5069113;28;20493;-56
2021/07/08 15:08:24;;;;;;;8.23;5.63;;;;;;;;;;5069438;28;20504;-56
2021/07/08 15:10:57;;;;;;;10.67;5.40;;;;;;;;;;5048488;28;20466;-59
2021/07/08 15:13:26;;;;;;;14.77;10.37;;;;;;;;;;5068195;28;20441;-54
2021/07/08 15:15:57;;;;;;;12.57;6.90;;;;;;;;;;5067874;28;20480;-55
2021/07/08 15:18:36;;;;;;;8.63;5.43;;;;;;;;;;5066743;28;20480;-56
2021/07/08 15:21:26;;;;;;;8.50;6.70;;;;;;;;;;5053812;28;20461;-58
2021/07/08 15:24:14;;;;;;;28.83;19.70;;;;;;;;;;5065061;28;20454;-57
2021/07/08 15:26:49;;;;;;;29.77;20.10;;;;;;;;;;5053182;28;20505;-58
2021/07/08 15:29:17;;;;;;;14.70;10.53;;;;;;;;;;5050060;28;20501;-58
2021/07/08 15:32:01;;;;;;;15.00;11.60;;;;;;;;;;5050739;28;20472;-58
2021/07/08 15:34:43;;;;;;;14.50;9.50;;;;;;;;;;5061650;28;20531;-59
2021/07/08 15:37:11;;;;;;;52.23;40.13;;;;;;;;;;5071241;28;21044;-59
2021/07/08 15:39:38;;;;;;;14.13;9.40;;;;;;;;;;5078830;28;20502;-56
2021/07/08 15:42:07;;;;;;;17.63;8.20;;;;;;;;;;5073521;28;20453;-57
2021/07/08 15:44:35;;;;;;;21.97;13.53;;;;;;;;;;5082083;28;20471;-57